Time;durP1;ratioP1;P1;durP2;ratioP2;P2;SDS_P1;SDS_P2;PMS_P1;PMS_P2;Temp;Humidity;BMP_temperature;BMP_pressure;BME280_temperature;BME280_humidity;BME280_pressure;Samples;Min_cycle;Max_cycle;Signal;HPM_P1;HPM_P2
2023/11/02 00:02:03;;;;;;;2.40;0.60;;;;;;;;;;5092549;28;20494;-85
2023/11/02 00:04:29;;;;;;;4.93;0.40;;;;;;;;;;5081555;28;20184;-87
2023/11/02 00:06:57;;;;;;;3.97;0.30;;;;;;;;;;5112762;28;20469;-85
2023/11/02 00:09:35;;;;;;;2.20;0.43;;;;;;;;;;5112931;28;20435;-84
2023/11/02 00:12:03;;;;;;;1.37;0.30;;;;;;;;;;5113421;28;20460;-89
2023/11/02 00:14:34;;;;;;;3.30;0.30;;;;;;;;;;5114024;28;20403;-87
2023/11/02 00:17:00;;;;;;;5.03;0.80;;;;;;;;;;5095396;28;20413;-89
2023/11/02 00:19:32;;;;;;;1.93;0.60;;;;;;;;;;5094981;28;20401;-87
2023/11/02 00:21:58;;;;;;;3.80;0.63;;;;;;;;;;5094754;28;20424;-88
2023/11/02 00:24:27;;;;;;;2.13;0.80;;;;;;;;;;5113032;28;20423;-86
2023/11/02 00:26:54;;;;;;;2.20;0.67;;;;;;;;;;5113086;28;20479;-88
2023/11/02 00:29:20;;;;;;;3.80;1.33;;;;;;;;;;5104237;28;20463;-87
2023/11/02 00:31:46;;;;;;;1.27;0.30;;;;;;;;;;5104453;28;20893;-88
2023/11/02 00:34:12;;;;;;;2.93;0.50;;;;;;;;;;5094336;28;20180;-87
2023/11/02 00:36:38;;;;;;;1.87;0.40;;;;;;;;;;5113283;28;20923;-87
2023/11/02 00:39:05;;;;;;;1.60;0.30;;;;;;;;;;5112994;28;20164;-88
2023/11/02 00:41:31;;;;;;;8.80;0.60;;;;;;;;;;5095105;28;20476;-88
2023/11/02 00:43:57;;;;;;;2.77;0.50;;;;;;;;;;5095058;28;20420;-88
2023/11/02 00:46:23;;;;;;;2.83;0.60;;;;;;;;;;5113012;28;20232;-89
2023/11/02 00:48:49;;;;;;;0.93;0.20;;;;;;;;;;5112686;28;20171;-89
2023/11/02 00:51:24;;;;;;;3.30;0.50;;;;;;;;;;5113318;28;20415;-89
2023/11/02 00:53:52;;;;;;;3.57;0.40;;;;;;;;;;5113601;28;20421;-88
2023/11/02 00:56:19;;;;;;;3.30;0.43;;;;;;;;;;5113171;28;20405;-87
2023/11/02 00:58:46;;;;;;;3.20;0.30;;;;;;;;;;5115558;28;20509;-89
2023/11/02 01:01:13;;;;;;;2.97;0.20;;;;;;;;;;5096203;28;20405;-90
2023/11/02 01:03:39;;;;;;;2.43;0.40;;;;;;;;;;5116095;28;20396;-88
2023/11/02 01:06:09;;;;;;;1.67;0.20;;;;;;;;;;5108250;28;20536;-90
2023/11/02 01:08:35;;;;;;;3.00;0.40;;;;;;;;;;5101033;28;20891;-90
2023/11/02 01:11:02;;;;;;;2.60;0.57;;;;;;;;;;5098090;28;20465;-91
2023/11/02 01:13:28;;;;;;;4.40;0.60;;;;;;;;;;5098729;28;20210;-91
2023/11/02 01:16:10;;;;;;;2.20;0.60;;;;;;;;;;5117116;28;20455;-90
2023/11/02 01:18:36;;;;;;;1.03;0.30;;;;;;;;;;5117010;28;20193;-90
2023/11/02 01:21:04;;;;;;;1.90;0.70;;;;;;;;;;5098763;28;20821;-90
2023/11/02 01:23:33;;;;;;;2.00;1.03;;;;;;;;;;5116682;28;20411;-90
2023/11/02 01:26:01;;;;;;;2.17;0.50;;;;;;;;;;5098555;28;20451;-90
2023/11/02 01:28:46;;;;;;;1.10;0.30;;;;;;;;;;5098570;28;20444;-89
2023/11/02 01:31:17;;;;;;;1.27;0.57;;;;;;;;;;5098623;28;20505;-91
2023/11/02 01:33:53;;;;;;;1.43;0.37;;;;;;;;;;5098213;28;20422;-90
2023/11/02 01:36:25;;;;;;;2.20;0.60;;;;;;;;;;5097966;28;20417;-89
2023/11/02 01:38:57;;;;;;;3.17;0.47;;;;;;;;;;5097940;28;20425;-89
2023/11/02 01:41:32;;;;;;;1.60;0.30;;;;;;;;;;5098305;28;20423;-88
2023/11/02 01:44:06;;;;;;;4.37;1.07;;;;;;;;;;5116435;28;20815;-88
2023/11/02 01:46:41;;;;;;;3.83;0.33;;;;;;;;;;5116586;28;20457;-89
2023/11/02 01:49:10;;;;;;;1.40;0.20;;;;;;;;;;5115840;28;20409;-89
2023/11/02 01:52:03;;;;;;;11.33;1.13;;;;;;;;;;5097993;28;20418;-89
2023/11/02 01:54:33;;;;;;;5.13;0.50;;;;;;;;;;5067519;28;20418;-91
2023/11/02 01:57:03;;;;;;;5.03;0.70;;;;;;;;;;5098011;28;20422;-89
2023/11/02 01:59:44;;;;;;;3.30;0.70;;;;;;;;;;5097977;28;20923;-89
2023/11/02 02:02:12;;;;;;;2.80;0.63;;;;;;;;;;5116173;28;20455;-91
2023/11/02 02:04:41;;;;;;;1.90;0.33;;;;;;;;;;5116043;28;20406;-91
2023/11/02 02:07:26;;;;;;;1.50;0.43;;;;;;;;;;5097868;28;20471;-91
2023/11/02 02:10:09;;;;;;;3.20;0.40;;;;;;;;;;5097526;28;20411;-90
2023/11/02 02:12:53;;;;;;;1.77;0.40;;;;;;;;;;5098266;28;20430;-92
2023/11/02 02:15:27;;;;;;;7.20;0.57;;;;;;;;;;5097858;28;20415;-90
2023/11/02 02:18:04;;;;;;;1.77;0.40;;;;;;;;;;5097995;28;20418;-91
2023/11/02 02:20:33;;;;;;;3.93;0.47;;;;;;;;;;5097260;28;20414;-88
2023/11/02 02:23:16;;;;;;;2.37;0.97;;;;;;;;;;5097698;28;20921;-89
2023/11/02 02:26:01;;;;;;;2.83;0.37;;;;;;;;;;5116185;28;20786;-92
2023/11/02 02:28:53;;;;;;;2.67;0.20;;;;;;;;;;5098462;28;20419;-91
2023/11/02 02:31:28;;;;;;;3.30;0.40;;;;;;;;;;5067193;28;20508;-93
2023/11/02 02:34:04;;;;;;;2.37;0.50;;;;;;;;;;5097823;28;20418;-91
2023/11/02 02:36:33;;;;;;;1.90;0.23;;;;;;;;;;5097679;28;20967;-90
2023/11/02 02:39:06;;;;;;;5.50;0.40;;;;;;;;;;5097593;28;20443;-91
2023/11/02 02:41:38;;;;;;;2.20;0.57;;;;;;;;;;5115732;28;20406;-90
2023/11/02 02:44:04;;;;;;;1.20;0.40;;;;;;;;;;5097482;28;20790;-91
2023/11/02 02:46:31;;;;;;;5.70;0.67;;;;;;;;;;5097322;28;20454;-91
2023/11/02 02:48:57;;;;;;;2.13;0.63;;;;;;;;;;5096974;28;20426;-90
2023/11/02 02:51:24;;;;;;;3.03;0.33;;;;;;;;;;5097374;28;20420;-89
2023/11/02 02:53:51;;;;;;;2.93;0.30;;;;;;;;;;5097271;28;20951;-91
2023/11/02 02:56:20;;;;;;;2.10;0.20;;;;;;;;;;5096096;28;20416;-86
2023/11/02 02:58:51;;;;;;;2.30;0.20;;;;;;;;;;5095887;28;20480;-87
2023/11/02 03:01:20;;;;;;;1.37;0.20;;;;;;;;;;5114195;28;20422;-88
2023/11/02 03:03:48;;;;;;;1.97;0.40;;;;;;;;;;5095045;28;21186;-88
2023/11/02 03:06:16;;;;;;;2.00;0.33;;;;;;;;;;5095579;28;20468;-88
2023/11/02 03:08:42;;;;;;;3.07;0.40;;;;;;;;;;5114162;28;20414;-87
2023/11/02 03:11:10;;;;;;;1.03;0.60;;;;;;;;;;5114070;28;20469;-87
2023/11/02 03:13:39;;;;;;;1.37;0.20;;;;;;;;;;5114113;28;20409;-87
2023/11/02 03:16:07;;;;;;;2.70;0.43;;;;;;;;;;5109545;28;20430;-88
2023/11/02 03:18:35;;;;;;;3.37;0.70;;;;;;;;;;5093277;28;20416;-91
2023/11/02 03:21:01;;;;;;;1.27;0.30;;;;;;;;;;5105364;28;21020;-90
2023/11/02 03:23:33;;;;;;;2.87;0.30;;;;;;;;;;5102895;28;20453;-88
2023/11/02 03:26:05;;;;;;;4.87;0.60;;;;;;;;;;5092862;28;20497;-87
2023/11/02 03:28:55;;;;;;;2.77;0.30;;;;;;;;;;5094794;28;20419;-89
2023/11/02 03:31:46;;;;;;;1.70;0.57;;;;;;;;;;5091982;28;20402;-89
2023/11/02 03:34:50;;;;;;;2.97;0.50;;;;;;;;;;5091724;28;20419;-89
2023/11/02 03:37:27;;;;;;;1.40;0.40;;;;;;;;;;5015477;28;20464;-88
2023/11/02 03:40:13;;;;;;;2.83;0.53;;;;;;;;;;5042598;28;20470;-89
2023/11/02 03:43:04;;;;;;;2.80;0.60;;;;;;;;;;5072183;28;20414;-89
2023/11/02 03:45:49;;;;;;;2.60;0.53;;;;;;;;;;5105389;28;20438;-90
2023/11/02 03:48:35;;;;;;;1.73;0.30;;;;;;;;;;5102360;28;20413;-88
2023/11/02 03:51:16;;;;;;;2.37;0.47;;;;;;;;;;5092977;28;20505;-88
2023/11/02 03:53:51;;;;;;;4.80;0.60;;;;;;;;;;5091339;28;20405;-87
2023/11/02 03:56:35;;;;;;;1.63;0.30;;;;;;;;;;5094940;28;20500;-86
2023/11/02 03:59:12;;;;;;;1.03;0.20;;;;;;;;;;5099380;28;20740;-88
2023/11/02 04:01:38;;;;;;;1.60;0.40;;;;;;;;;;5104052;28;20919;-88
2023/11/02 04:04:06;;;;;;;1.70;0.43;;;;;;;;;;5092680;28;20420;-86
2023/11/02 04:06:44;;;;;;;4.93;0.40;;;;;;;;;;5105071;28;20201;-90
2023/11/02 04:09:13;;;;;;;2.13;0.20;;;;;;;;;;5110486;28;20485;-90
2023/11/02 04:12:16;;;;;;;3.63;0.37;;;;;;;;;;5084476;28;20958;-89
2023/11/02 04:14:44;;;;;;;3.23;0.60;;;;;;;;;;5025794;28;20835;-88
2023/11/02 04:17:11;;;;;;;1.17;0.40;;;;;;;;;;5087393;28;20415;-89
2023/11/02 04:19:37;;;;;;;2.10;0.87;;;;;;;;;;5103685;28;20405;-87
2023/11/02 04:22:05;;;;;;;1.87;0.57;;;;;;;;;;5102521;28;20887;-89
2023/11/02 04:24:31;;;;;;;2.00;0.30;;;;;;;;;;5095009;28;20415;-88
2023/11/02 04:26:57;;;;;;;3.13;0.50;;;;;;;;;;5104355;28;20873;-89
2023/11/02 04:29:23;;;;;;;2.80;0.50;;;;;;;;;;5092695;28;20179;-90
2023/11/02 04:31:49;;;;;;;3.43;0.60;;;;;;;;;;5113793;28;20467;-88
2023/11/02 04:34:15;;;;;;;3.27;0.30;;;;;;;;;;5116887;28;20436;-86
2023/11/02 04:36:41;;;;;;;1.80;0.20;;;;;;;;;;5117244;28;20410;-87
2023/11/02 04:39:07;;;;;;;4.00;0.33;;;;;;;;;;5098891;28;20412;-88
2023/11/02 04:41:33;;;;;;;1.53;0.57;;;;;;;;;;5098982;28;20419;-88
2023/11/02 04:43:59;;;;;;;2.97;0.60;;;;;;;;;;5117263;28;20402;-88
2023/11/02 04:46:24;;;;;;;0.90;0.30;;;;;;;;;;5099114;28;20471;-88
2023/11/02 04:48:50;;;;;;;2.90;0.23;;;;;;;;;;5098915;28;20425;-90
2023/11/02 04:51:16;;;;;;;3.37;0.57;;;;;;;;;;5117533;28;20412;-88
2023/11/02 04:53:42;;;;;;;3.00;0.30;;;;;;;;;;5117475;28;20504;-90
2023/11/02 04:56:09;;;;;;;3.63;0.40;;;;;;;;;;5117375;28;20409;-89
2023/11/02 04:58:34;;;;;;;3.23;0.80;;;;;;;;;;5099279;28;20484;-92
2023/11/02 05:01:00;;;;;;;7.40;0.67;;;;;;;;;;5099481;28;20412;-89
2023/11/02 05:03:26;;;;;;;3.17;0.50;;;;;;;;;;5117072;28;20426;-91
2023/11/02 05:05:52;;;;;;;1.80;0.40;;;;;;;;;;5099385;28;20488;-91
2023/11/02 05:08:18;;;;;;;2.83;0.40;;;;;;;;;;5099317;28;20179;-90
2023/11/02 05:10:44;;;;;;;2.60;0.57;;;;;;;;;;5098981;28;20944;-90
2023/11/02 05:13:10;;;;;;;2.27;0.20;;;;;;;;;;5117360;28;20460;-91
2023/11/02 05:15:36;;;;;;;1.77;0.20;;;;;;;;;;5117831;28;20412;-91
2023/11/02 05:18:02;;;;;;;2.47;0.30;;;;;;;;;;5117369;28;20414;-91
2023/11/02 05:20:28;;;;;;;1.47;0.40;;;;;;;;;;5099077;28;20206;-92
2023/11/02 05:22:54;;;;;;;5.33;0.70;;;;;;;;;;5098928;28;20763;-90
2023/11/02 05:25:20;;;;;;;4.60;0.63;;;;;;;;;;5098435;28;20901;-93
2023/11/02 05:27:46;;;;;;;4.13;0.87;;;;;;;;;;5098550;28;20477;-89
2023/11/02 05:30:12;;;;;;;2.47;0.33;;;;;;;;;;5098449;28;20410;-89
2023/11/02 05:32:38;;;;;;;5.40;0.30;;;;;;;;;;5116451;28;20173;-92
2023/11/02 05:35:04;;;;;;;2.50;0.40;;;;;;;;;;5098851;28;20417;-88
2023/11/02 05:37:31;;;;;;;2.73;0.30;;;;;;;;;;5099078;28;20419;-90
2023/11/02 05:39:57;;;;;;;2.23;0.60;;;;;;;;;;5099571;28;20410;-92
2023/11/02 05:42:23;;;;;;;1.57;0.40;;;;;;;;;;5099336;28;20412;-94
2023/11/02 05:44:49;;;;;;;3.17;0.40;;;;;;;;;;5099108;28;20430;-93
2023/11/02 05:47:14;;;;;;;1.80;0.30;;;;;;;;;;5099182;28;20567;-91
2023/11/02 05:49:40;;;;;;;1.63;0.50;;;;;;;;;;5098821;28;20905;-91
2023/11/02 05:52:06;;;;;;;4.77;0.53;;;;;;;;;;5099372;28;20179;-90
2023/11/02 05:54:32;;;;;;;3.70;0.30;;;;;;;;;;5099663;28;20434;-91
2023/11/02 05:56:58;;;;;;;1.67;0.23;;;;;;;;;;5099501;28;20917;-90
2023/11/02 05:59:24;;;;;;;1.27;0.30;;;;;;;;;;5099627;28;20515;-91
2023/11/02 06:01:50;;;;;;;1.57;0.20;;;;;;;;;;5099243;28;20421;-92
2023/11/02 06:04:16;;;;;;;4.63;0.30;;;;;;;;;;5099467;28;20421;-90
2023/11/02 06:06:42;;;;;;;1.57;0.30;;;;;;;;;;5100331;28;20472;-90
2023/11/02 06:09:08;;;;;;;2.70;0.47;;;;;;;;;;5101085;28;20508;-94
2023/11/02 06:11:34;;;;;;;1.27;0.20;;;;;;;;;;5127299;28;20465;-96
2023/11/02 06:14:00;;;;;;;1.80;0.30;;;;;;;;;;5104609;28;20485;-89
2023/11/02 06:16:26;;;;;;;0.97;0.20;;;;;;;;;;5103985;28;20464;-95
2023/11/02 06:18:52;;;;;;;2.67;0.60;;;;;;;;;;5105436;28;20460;-93
2023/11/02 06:21:18;;;;;;;1.00;0.20;;;;;;;;;;5102556;28;20411;-90
2023/11/02 06:23:44;;;;;;;2.53;0.40;;;;;;;;;;5081290;28;20559;-94
2023/11/02 06:26:10;;;;;;;1.80;0.37;;;;;;;;;;5076834;28;20536;-85
2023/11/02 06:28:36;;;;;;;4.00;0.47;;;;;;;;;;5076844;28;20513;-86
2023/11/02 06:31:05;;;;;;;2.13;0.37;;;;;;;;;;5077694;28;20187;-85
2023/11/02 06:33:33;;;;;;;1.50;0.77;;;;;;;;;;5077886;28;20432;-85
2023/11/02 06:36:00;;;;;;;2.53;0.27;;;;;;;;;;5080287;28;20439;-88
2023/11/02 06:38:29;;;;;;;2.60;0.40;;;;;;;;;;5077190;28;20778;-90
2023/11/02 06:40:55;;;;;;;2.83;1.93;;;;;;;;;;5077360;28;20414;-89
2023/11/02 06:43:21;;;;;;;4.07;0.47;;;;;;;;;;5076855;28;20408;-91
2023/11/02 06:45:47;;;;;;;1.47;0.50;;;;;;;;;;5077295;28;20407;-88
2023/11/02 06:48:13;;;;;;;0.90;0.30;;;;;;;;;;5076510;28;20952;-88
2023/11/02 06:50:39;;;;;;;0.90;0.30;;;;;;;;;;5094708;28;20508;-88
2023/11/02 06:53:05;;;;;;;3.37;0.87;;;;;;;;;;5076587;28;20427;-92
2023/11/02 06:55:31;;;;;;;3.23;0.20;;;;;;;;;;5076175;28;20176;-92
2023/11/02 06:57:57;;;;;;;1.63;0.27;;;;;;;;;;5076350;28;20426;-86
2023/11/02 07:00:23;;;;;;;4.87;0.70;;;;;;;;;;5076147;28;20404;-86
2023/11/02 07:02:49;;;;;;;2.27;0.43;;;;;;;;;;5075610;28;20420;-87
2023/11/02 07:05:15;;;;;;;10.23;7.20;;;;;;;;;;5076204;28;20784;-87
2023/11/02 07:07:43;;;;;;;22.03;11.80;;;;;;;;;;5076054;28;20465;-87
2023/11/02 07:10:09;;;;;;;4.53;1.10;;;;;;;;;;5075863;28;20526;-86
2023/11/02 07:12:35;;;;;;;2.90;0.57;;;;;;;;;;5094001;28;20497;-86
2023/11/02 07:15:01;;;;;;;3.10;0.33;;;;;;;;;;5094129;28;20963;-88
2023/11/02 07:17:27;;;;;;;3.93;0.40;;;;;;;;;;5075883;28;20433;-87
2023/11/02 07:19:53;;;;;;;5.63;0.47;;;;;;;;;;5075359;28;20408;-85
2023/11/02 07:22:19;;;;;;;2.10;0.47;;;;;;;;;;5093870;28;20421;-86
2023/11/02 07:24:45;;;;;;;2.47;0.60;;;;;;;;;;5093609;28;20502;-91
2023/11/02 07:27:11;;;;;;;5.80;0.30;;;;;;;;;;5094584;28;20472;-90
2023/11/02 07:29:38;;;;;;;5.40;0.60;;;;;;;;;;5076192;28;20974;-89
2023/11/02 07:32:04;;;;;;;6.00;0.40;;;;;;;;;;5076527;28;20422;-89
2023/11/02 07:34:30;;;;;;;2.47;0.20;;;;;;;;;;5077056;28;20511;-94
2023/11/02 07:36:57;;;;;;;2.73;0.40;;;;;;;;;;5078243;28;20422;-92
2023/11/02 07:39:23;;;;;;;7.10;1.10;;;;;;;;;;5095133;28;20418;-89
2023/11/02 07:41:49;;;;;;;2.70;0.93;;;;;;;;;;5093957;28;20415;-88
2023/11/02 07:44:15;;;;;;;8.30;2.13;;;;;;;;;;5090364;28;20418;-86
2023/11/02 07:46:41;;;;;;;4.77;1.73;;;;;;;;;;5113948;28;20888;-85
2023/11/02 07:49:07;;;;;;;3.87;1.53;;;;;;;;;;5113882;28;20406;-87
2023/11/02 07:51:33;;;;;;;3.57;0.60;;;;;;;;;;5114295;28;20393;-88
2023/11/02 07:53:59;;;;;;;3.67;2.00;;;;;;;;;;5095737;28;20419;-86
2023/11/02 07:56:25;;;;;;;5.87;2.07;;;;;;;;;;5094929;28;20167;-90
2023/11/02 07:58:51;;;;;;;3.93;1.70;;;;;;;;;;5091872;28;20796;-87
2023/11/02 08:01:19;;;;;;;3.37;0.67;;;;;;;;;;5093408;28;20407;-84
2023/11/02 08:03:45;;;;;;;1.30;0.33;;;;;;;;;;5092845;28;20511;-85
2023/11/02 08:06:11;;;;;;;4.77;3.10;;;;;;;;;;5074778;28;20475;-86
2023/11/02 08:08:37;;;;;;;1.53;0.53;;;;;;;;;;5096188;28;20406;-85
2023/11/02 08:11:03;;;;;;;2.17;0.40;;;;;;;;;;5096944;28;20467;-87
2023/11/02 08:13:30;;;;;;;3.93;0.70;;;;;;;;;;5079019;28;20423;-87
2023/11/02 08:15:57;;;;;;;1.57;0.20;;;;;;;;;;5079373;28;21133;-84
2023/11/02 08:18:23;;;;;;;1.53;0.30;;;;;;;;;;5097079;28;20408;-86
2023/11/02 08:20:49;;;;;;;2.10;0.40;;;;;;;;;;5078953;28;20754;-86
2023/11/02 08:23:15;;;;;;;3.43;0.73;;;;;;;;;;5113462;28;20483;-87
2023/11/02 08:25:41;;;;;;;3.37;0.30;;;;;;;;;;5086931;28;20517;-87
2023/11/02 08:28:11;;;;;;;1.40;0.40;;;;;;;;;;5110213;28;20432;-86
2023/11/02 08:30:37;;;;;;;1.23;0.43;;;;;;;;;;5082110;28;20481;-87
2023/11/02 08:33:03;;;;;;;3.30;0.40;;;;;;;;;;5078956;28;20430;-87
2023/11/02 08:35:29;;;;;;;2.33;0.33;;;;;;;;;;5079217;28;20411;-87
2023/11/02 08:37:55;;;;;;;3.70;0.30;;;;;;;;;;5108140;28;20479;-84
2023/11/02 08:40:21;;;;;;;2.00;0.30;;;;;;;;;;5079617;28;20853;-87
2023/11/02 08:42:47;;;;;;;6.10;0.90;;;;;;;;;;5079337;28;20178;-85
2023/11/02 08:45:14;;;;;;;2.00;0.33;;;;;;;;;;5096931;28;20405;-89
2023/11/02 08:47:40;;;;;;;2.80;0.63;;;;;;;;;;5078136;28;20536;-88
2023/11/02 08:50:06;;;;;;;5.30;2.33;;;;;;;;;;5111322;28;20413;-89
2023/11/02 08:52:32;;;;;;;2.60;0.50;;;;;;;;;;5098746;28;20881;-90
2023/11/02 08:55:00;;;;;;;1.97;0.40;;;;;;;;;;5117155;28;20461;-87
2023/11/02 08:57:26;;;;;;;4.10;0.40;;;;;;;;;;5098849;28;20413;-88
2023/11/02 08:59:52;;;;;;;6.50;2.90;;;;;;;;;;5098790;28;20737;-90
2023/11/02 09:02:18;;;;;;;2.57;0.93;;;;;;;;;;5098246;28;20422;-86
2023/11/02 09:04:44;;;;;;;20.63;7.07;;;;;;;;;;5116938;28;20418;-87
2023/11/02 09:07:10;;;;;;;4.53;0.20;;;;;;;;;;5116807;28;20465;-86
2023/11/02 09:09:36;;;;;;;2.30;0.20;;;;;;;;;;5098618;28;20239;-87
2023/11/02 09:12:02;;;;;;;1.30;0.20;;;;;;;;;;5116513;28;20474;-87
2023/11/02 09:14:28;;;;;;;2.00;0.30;;;;;;;;;;5116763;28;20650;-88
2023/11/02 09:16:53;;;;;;;0.77;0.20;;;;;;;;;;5116524;28;20411;-89
2023/11/02 09:19:19;;;;;;;3.50;0.30;;;;;;;;;;5116193;28;20408;-90
2023/11/02 09:21:47;;;;;;;1.87;0.20;;;;;;;;;;5116413;28;20400;-87
2023/11/02 09:24:14;;;;;;;1.60;0.30;;;;;;;;;;5116399;28;20415;-87
2023/11/02 09:26:41;;;;;;;0.80;0.20;;;;;;;;;;5116329;28;20470;-89
2023/11/02 09:29:07;;;;;;;6.90;0.20;;;;;;;;;;5116396;28;20413;-86
2023/11/02 09:31:33;;;;;;;1.37;0.20;;;;;;;;;;5116401;28;20416;-86
2023/11/02 09:34:00;;;;;;;2.60;0.20;;;;;;;;;;5097785;28;20411;-87
2023/11/02 09:36:26;;;;;;;3.20;0.40;;;;;;;;;;5116157;28;20509;-85
2023/11/02 09:38:52;;;;;;;1.80;0.20;;;;;;;;;;5116191;28;20417;-87
2023/11/02 09:41:18;;;;;;;1.13;0.20;;;;;;;;;;5116032;28;20502;-89
2023/11/02 09:43:45;;;;;;;2.10;0.30;;;;;;;;;;5097910;28;20419;-89
2023/11/02 09:46:12;;;;;;;4.37;0.20;;;;;;;;;;5115902;28;20442;-87
2023/11/02 09:48:38;;;;;;;3.60;0.30;;;;;;;;;;5115722;28;20458;-85
2023/11/02 09:51:05;;;;;;;2.03;0.20;;;;;;;;;;5115986;28;20415;-89
2023/11/02 09:53:31;;;;;;;0.97;0.20;;;;;;;;;;5115927;28;20423;-87
2023/11/02 09:55:57;;;;;;;4.33;0.60;;;;;;;;;;5097582;28;20916;-91
2023/11/02 09:58:23;;;;;;;1.63;0.20;;;;;;;;;;5097501;28;20463;-86
2023/11/02 10:00:49;;;;;;;1.60;0.20;;;;;;;;;;5097640;28;20423;-88
2023/11/02 10:03:17;;;;;;;4.30;0.37;;;;;;;;;;5097236;28;20403;-86
2023/11/02 10:05:43;;;;;;;2.47;0.30;;;;;;;;;;5097228;28;20425;-85
2023/11/02 10:08:09;;;;;;;1.97;0.40;;;;;;;;;;5115604;28;20414;-86
2023/11/02 10:10:35;;;;;;;1.37;0.40;;;;;;;;;;5115257;28;20516;-83
2023/11/02 10:13:01;;;;;;;1.30;0.20;;;;;;;;;;5115420;28;20506;-88
2023/11/02 10:15:27;;;;;;;3.10;0.57;;;;;;;;;;5115546;28;20411;-88
2023/11/02 10:17:53;;;;;;;2.60;0.87;;;;;;;;;;5114932;28;20770;-89
2023/11/02 10:20:19;;;;;;;1.17;0.33;;;;;;;;;;5115385;28;20410;-89
2023/11/02 10:22:57;;;;;;;11.83;0.30;;;;;;;;;;5096859;28;20753;-86
2023/11/02 10:25:23;;;;;;;5.27;0.50;;;;;;;;;;5115097;28;20433;-87
2023/11/02 10:27:50;;;;;;;1.27;0.60;;;;;;;;;;5115145;28;21002;-86
2023/11/02 10:30:19;;;;;;;2.43;0.27;;;;;;;;;;5114362;28;20408;-88
2023/11/02 10:32:45;;;;;;;1.90;0.43;;;;;;;;;;5114541;28;20874;-88
2023/11/02 10:35:11;;;;;;;2.03;0.50;;;;;;;;;;5114982;28;20417;-88
2023/11/02 10:37:37;;;;;;;1.83;0.23;;;;;;;;;;5114965;28;20441;-88
2023/11/02 10:40:04;;;;;;;1.90;0.20;;;;;;;;;;5115119;28;20404;-88
2023/11/02 10:42:30;;;;;;;1.77;0.33;;;;;;;;;;5114770;28;20414;-87
2023/11/02 10:44:56;;;;;;;1.90;0.20;;;;;;;;;;5114875;28;20401;-87
2023/11/02 10:47:34;;;;;;;8.23;0.90;;;;;;;;;;5114411;28;20533;-87
2023/11/02 10:50:00;;;;;;;4.33;0.50;;;;;;;;;;5096581;28;20927;-88
2023/11/02 10:52:32;;;;;;;4.13;0.30;;;;;;;;;;5096634;28;20413;-87
2023/11/02 10:55:17;;;;;;;0.57;0.20;;;;;;;;;;5114984;28;20257;-88
2023/11/02 10:57:44;;;;;;;1.00;0.30;;;;;;;;;;5114666;28;20425;-86
2023/11/02 11:00:11;;;;;;;1.30;0.40;;;;;;;;;;5114589;28;20481;-88
2023/11/02 11:02:37;;;;;;;1.23;0.30;;;;;;;;;;5113948;28;20404;-89
2023/11/02 11:05:05;;;;;;;1.90;0.20;;;;;;;;;;5114292;28;20402;-88
2023/11/02 11:07:32;;;;;;;1.63;0.30;;;;;;;;;;5114636;28;20519;-89
2023/11/02 11:10:00;;;;;;;7.50;0.60;;;;;;;;;;5114183;28;20412;-87
2023/11/02 11:12:27;;;;;;;0.87;0.20;;;;;;;;;;5114565;28;20891;-88
2023/11/02 11:14:55;;;;;;;4.20;0.37;;;;;;;;;;5096176;28;20422;-87
2023/11/02 11:17:21;;;;;;;0.50;0.20;;;;;;;;;;5114219;28;20418;-88
2023/11/02 11:19:47;;;;;;;1.17;0.20;;;;;;;;;;5095960;28;20440;-86
2023/11/02 11:22:14;;;;;;;2.83;0.40;;;;;;;;;;5095937;28;20542;-89
2023/11/02 11:24:41;;;;;;;0.70;0.20;;;;;;;;;;5114298;28;20477;-90
2023/11/02 11:27:07;;;;;;;0.70;0.20;;;;;;;;;;5108851;28;20966;-87
2023/11/02 11:29:37;;;;;;;3.33;0.30;;;;;;;;;;5092527;28;20777;-85
2023/11/02 11:32:04;;;;;;;0.70;0.20;;;;;;;;;;5091364;28;20433;-88
2023/11/02 11:34:48;;;;;;;2.77;0.20;;;;;;;;;;5093919;28;20406;-82
2023/11/02 11:37:34;;;;;;;7.40;0.37;;;;;;;;;;5093165;28;20417;-84
2023/11/02 11:40:05;;;;;;;1.57;0.40;;;;;;;;;;5091732;28;20425;-89
2023/11/02 11:42:50;;;;;;;1.87;0.20;;;;;;;;;;5093846;28;20408;-86
2023/11/02 11:45:26;;;;;;;1.37;0.20;;;;;;;;;;5092017;28;20410;-79
2023/11/02 11:47:56;;;;;;;3.80;0.87;;;;;;;;;;5093683;28;20473;-80
2023/11/02 11:50:38;;;;;;;0.50;0.20;;;;;;;;;;5090937;28;20757;-79
2023/11/02 11:53:08;;;;;;;1.43;0.30;;;;;;;;;;5091759;28;20468;-80
2023/11/02 11:55:38;;;;;;;3.73;2.33;;;;;;;;;;5073489;28;20417;-79
2023/11/02 11:58:06;;;;;;;1.80;0.87;;;;;;;;;;5098288;28;20514;-80
2023/11/02 12:00:32;;;;;;;3.07;1.80;;;;;;;;;;5108991;28;20413;-80
2023/11/02 12:03:04;;;;;;;2.80;1.53;;;;;;;;;;5101236;28;20493;-79
2023/11/02 12:05:52;;;;;;;6.13;2.00;;;;;;;;;;5103489;28;20803;-80
2023/11/02 12:08:18;;;;;;;7.70;1.80;;;;;;;;;;5106204;28;20525;-80
2023/11/02 12:10:45;;;;;;;0.87;0.40;;;;;;;;;;5092517;28;20445;-82
2023/11/02 12:13:12;;;;;;;0.83;0.20;;;;;;;;;;5074569;28;20414;-78
2023/11/02 12:15:50;;;;;;;2.60;0.33;;;;;;;;;;5092614;28;20410;-79
2023/11/02 12:18:18;;;;;;;1.57;0.40;;;;;;;;;;5092170;28;20390;-80
2023/11/02 12:20:44;;;;;;;1.27;0.20;;;;;;;;;;5092550;28;20424;-80
2023/11/02 12:23:13;;;;;;;2.30;0.30;;;;;;;;;;5109650;28;20410;-81
2023/11/02 12:25:39;;;;;;;1.63;0.20;;;;;;;;;;5112933;28;20413;-81
2023/11/02 12:28:11;;;;;;;1.70;0.40;;;;;;;;;;5112633;28;20461;-78
2023/11/02 12:30:41;;;;;;;11.43;5.23;;;;;;;;;;5102959;28;20444;-79
2023/11/02 12:33:07;;;;;;;0.80;0.30;;;;;;;;;;5095410;28;20425;-81
2023/11/02 12:35:33;;;;;;;1.97;0.40;;;;;;;;;;5097165;28;20417;-80
2023/11/02 12:38:00;;;;;;;3.43;2.07;;;;;;;;;;5092676;28;20406;-81
2023/11/02 12:40:26;;;;;;;2.23;0.50;;;;;;;;;;5100376;28;20653;-82
2023/11/02 12:42:53;;;;;;;1.47;0.90;;;;;;;;;;5092193;28;20812;-79
2023/11/02 12:45:23;;;;;;;2.83;1.10;;;;;;;;;;5092277;28;20895;-83
2023/11/02 12:47:49;;;;;;;1.40;0.53;;;;;;;;;;5126317;22;20579;-82
2023/11/02 12:50:30;;;;;;;2.40;0.40;;;;;;;;;;5114515;28;20924;-80
2023/11/02 12:52:57;;;;;;;1.70;0.63;;;;;;;;;;5125906;27;20419;-83
2023/11/02 12:55:25;;;;;;;0.67;0.30;;;;;;;;;;5136931;27;20414;-82
2023/11/02 12:57:52;;;;;;;2.00;0.30;;;;;;;;;;5136828;27;20442;-82
2023/11/02 13:00:18;;;;;;;2.00;0.53;;;;;;;;;;5134376;27;20412;-88
2023/11/02 13:02:46;;;;;;;3.73;1.80;;;;;;;;;;5136386;27;20407;-84
2023/11/02 13:05:18;;;;;;;1.23;0.70;;;;;;;;;;5136626;27;20851;-85
2023/11/02 13:07:51;;;;;;;5.07;3.13;;;;;;;;;;5134238;27;20473;-88
2023/11/02 13:10:17;;;;;;;3.60;1.07;;;;;;;;;;5133647;27;20444;-80
2023/11/02 13:12:44;;;;;;;2.63;0.40;;;;;;;;;;5135804;27;20408;-85
2023/11/02 13:15:11;;;;;;;1.87;0.57;;;;;;;;;;5136868;27;20409;-81
2023/11/02 13:17:39;;;;;;;2.20;0.40;;;;;;;;;;5136428;27;20440;-82
2023/11/02 13:20:06;;;;;;;2.93;1.03;;;;;;;;;;5134030;27;20437;-79
2023/11/02 13:22:32;;;;;;;5.50;0.87;;;;;;;;;;5126804;27;20439;-88
2023/11/02 13:24:58;;;;;;;1.60;0.20;;;;;;;;;;5136384;27;20405;-82
2023/11/02 13:27:24;;;;;;;3.03;0.80;;;;;;;;;;5134463;27;20496;-83
2023/11/02 13:29:50;;;;;;;2.10;0.53;;;;;;;;;;5132613;27;20415;-80
2023/11/02 13:32:16;;;;;;;1.90;0.77;;;;;;;;;;5135241;27;20936;-80
2023/11/02 13:34:42;;;;;;;1.37;0.53;;;;;;;;;;5135705;27;20499;-80
2023/11/02 13:37:09;;;;;;;1.07;0.43;;;;;;;;;;5135813;27;20175;-81
2023/11/02 13:39:35;;;;;;;1.63;0.73;;;;;;;;;;5133624;27;20442;-79
2023/11/02 13:42:01;;;;;;;3.53;0.60;;;;;;;;;;5135594;27;20423;-79
2023/11/02 13:44:27;;;;;;;2.63;1.00;;;;;;;;;;5132185;27;20452;-89
2023/11/02 13:46:53;;;;;;;2.60;0.97;;;;;;;;;;5134430;27;20464;-86
2023/11/02 13:49:19;;;;;;;1.77;0.53;;;;;;;;;;5136528;27;20493;-86
2023/11/02 13:51:45;;;;;;;3.80;3.20;;;;;;;;;;5131145;27;20413;-85
2023/11/02 13:54:11;;;;;;;1.67;0.80;;;;;;;;;;5117136;27;20185;-91
2023/11/02 13:56:37;;;;;;;3.03;0.63;;;;;;;;;;5117395;27;20419;-88
2023/11/02 13:59:03;;;;;;;7.10;3.60;;;;;;;;;;5117330;27;20424;-89
2023/11/02 14:01:29;;;;;;;3.40;0.90;;;;;;;;;;5117651;27;20519;-87
2023/11/02 14:03:55;;;;;;;4.50;2.50;;;;;;;;;;5112314;27;20178;-87
2023/11/02 14:06:21;;;;;;;2.50;0.60;;;;;;;;;;5134713;27;20455;-86
2023/11/02 14:08:47;;;;;;;2.43;1.03;;;;;;;;;;5117491;27;20562;-85
2023/11/02 14:11:13;;;;;;;1.47;0.97;;;;;;;;;;5135501;27;20657;-90
2023/11/02 14:13:43;;;;;;;2.50;0.73;;;;;;;;;;5135263;27;20780;-87
2023/11/02 14:16:09;;;;;;;3.70;2.00;;;;;;;;;;5116807;27;20436;-88
2023/11/02 14:18:35;;;;;;;3.27;1.70;;;;;;;;;;5135110;27;20412;-84
2023/11/02 14:21:01;;;;;;;3.23;1.23;;;;;;;;;;5135990;27;20470;-85
2023/11/02 14:23:27;;;;;;;4.20;2.80;;;;;;;;;;5135150;27;20809;-88
2023/11/02 14:25:54;;;;;;;3.73;2.90;;;;;;;;;;5135550;27;20460;-90
2023/11/02 14:28:20;;;;;;;4.93;3.10;;;;;;;;;;5135572;27;20262;-84
2023/11/02 14:30:46;;;;;;;1.80;0.90;;;;;;;;;;5127061;27;20873;-87
2023/11/02 14:33:13;;;;;;;1.23;0.60;;;;;;;;;;5132573;27;20412;-80
2023/11/02 14:35:39;;;;;;;2.20;1.00;;;;;;;;;;5133484;27;20435;-79
2023/11/02 14:38:05;;;;;;;3.43;0.90;;;;;;;;;;5124070;27;20487;-91
2023/11/02 14:40:32;;;;;;;2.30;1.03;;;;;;;;;;5118887;27;20187;-89
2023/11/02 14:43:00;;;;;;;3.80;1.70;;;;;;;;;;5119524;27;20442;-81
2023/11/02 14:45:26;;;;;;;4.10;0.83;;;;;;;;;;5120121;27;20476;-89
2023/11/02 14:47:52;;;;;;;1.50;0.60;;;;;;;;;;5118891;27;20519;-79
2023/11/02 14:50:18;;;;;;;1.03;0.20;;;;;;;;;;5109507;28;20435;-87
2023/11/02 14:52:47;;;;;;;1.03;0.20;;;;;;;;;;5118130;27;20855;-81